• Join FlightAware (Why Join?)
  • Login
  • US Flag 
03:29AM EDT


 

Airport Tracker/Info


-or-


 

Live Flight TrackerFlight Track Log ✈ USC110 ✈ 15-Jun-2013 ✈ KYIP - KDPA

Flight Track Log - Related Links

Times and Time Zones

All times are in EDT time to prevent confusion due to time zone crossing. See the USC110 flight status page for this flight to view local times or setup timezone preferences in your user account.

Time Position Orientation Groundspeed Altitude Reporting Facility
EDT Latitude Longitude Course Direction KTS MPH feet Rate Location/Type
12:23AM 42.2258 -83.5528 230° Southwest 94 108 1,600  Level Cleveland Center
12:24AM 42.2083 -83.5883 236° Southwest 122 140 2,600 1,020 Climbing Cleveland Center
12:25AM 42.1969 -83.6242 247° West 116 133 3,600 1,140 Climbing Cleveland Center
12:26AM 42.1936 -83.6661 264° West 110 127 4,800 1,080 Climbing Cleveland Center
12:27AM 42.1842 -83.7078 253° West 114 131 5,800 1,020 Climbing Cleveland Center
12:28AM 42.1831 -83.7497 268° West 112 129 6,900 1,020 Climbing Cleveland Center
12:29AM 42.1736 -83.7886 252° West 113 130 7,900 540 Climbing Cleveland Center
12:30AM 42.1661 -83.8386 259° West 150 173 8,000  Climbing Cleveland Center
12:31AM 42.1603 -83.8969 262° West 162 186 8,000 -60 Level Cleveland Center
12:33AM 42.1381 -84.0386 258° West 156 180 7,900 -60 Descending Chicago Center
12:34AM 42.1275 -84.0939 256° West 156 180 7,900  Level Chicago Center
12:35AM 42.1164 -84.1522 256° West 157 181 7,900  Level Chicago Center
12:36AM 42.1072 -84.2089 258° West 155 178 7,900  Level Chicago Center
12:37AM 42.0981 -84.2653 258° West 155 178 7,900  Level Chicago Center
12:39AM 42.0892 -84.3225 258° West 156 180 7,900  Level Chicago Center
12:40AM 42.0794 -84.3797 257° West 157 181 7,900  Level Chicago Center
12:41AM 42.0708 -84.4347 258° West 154 177 7,900  Level Chicago Center
12:42AM 42.0628 -84.4908 259° West 156 180 7,900  Level Chicago Center
12:43AM 42.0531 -84.5486 257° West 158 182 7,900  Level Chicago Center
12:44AM 42.0428 -84.6064 257° West 160 184 7,900  Level Chicago Center
12:45AM 42.0350 -84.6633 260° West 157 181 7,900  Level Chicago Center
12:46AM 42.0250 -84.7194 257° West 156 180 7,900  Level Chicago Center
12:47AM 42.0167 -84.7783 259° West 159 183 7,900  Level Chicago Center
12:48AM 42.0067 -84.8364 257° West 159 183 7,900  Level Chicago Center
12:49AM 41.9975 -84.8928 258° West 157 181 7,900  Level Chicago Center
12:50AM 41.9858 -84.9511 255° West 160 184 7,900  Level Chicago Center
12:51AM 41.9764 -85.0092 258° West 161 185 7,900  Level Chicago Center
12:52AM 41.9658 -85.0667 256° West 161 185 7,900  Level Chicago Center
12:53AM 41.9556 -85.1239 256° West 159 183 7,900  Level Chicago Center
12:54AM 41.9453 -85.1806 256° West 158 182 7,900  Level Chicago Center
12:55AM 41.9347 -85.2497 258° West 159 183 7,900  Level Chicago Center
12:56AM 41.9256 -85.3072 258° West 159 183 7,900  Level Chicago Center
12:57AM 41.9156 -85.3644 257° West 158 182 7,900  Level Chicago Center
12:58AM 41.9053 -85.4214 256° West 159 183 7,900  Level Chicago Center
01:00AM 41.8850 -85.5367 257° West 159 183 7,900  Level Chicago Center
01:01AM 41.8744 -85.5947 256° West 161 185 7,900  Level Chicago Center
01:02AM 41.8644 -85.6519 257° West 160 184 7,900  Level Chicago Center
01:03AM 41.8544 -85.7094 257° West 159 183 7,900  Level Chicago Center
01:04AM 41.8447 -85.7667 257° West 159 183 7,900  Level Chicago Center
01:05AM 41.8353 -85.8231 257° West 156 180 7,900  Level Chicago Center
01:06AM 41.8239 -85.8772 254° West 152 175 7,900  Level Chicago Center
01:07AM 41.8147 -85.9347 258° West 156 180 7,900  Level Chicago Center
01:08AM 41.8056 -85.9919 258° West 157 181 7,900  Level Chicago Center
01:09AM 41.7939 -86.0461 254° West 152 175 7,900  Level Chicago Center
01:10AM 41.7842 -86.1036 257° West 156 180 7,900  Level Chicago Center
01:11AM 41.7739 -86.1597 256° West 156 180 7,900  Level Chicago Center
01:12AM 41.7644 -86.2169 258° West 158 182 7,900  Level Chicago Center
01:13AM 41.7536 -86.2736 256° West 158 182 7,900  Level Chicago Center
01:14AM 41.7439 -86.3297 257° West 156 180 7,900  Level Chicago Center
01:15AM 41.7333 -86.3853 256° West 154 177 7,900  Level Chicago Center
01:16AM 41.7242 -86.4431 258° West 158 182 7,900  Level Chicago Center
01:17AM 41.7131 -86.4981 255° West 156 180 7,900  Level Chicago Center
01:18AM 41.7017 -86.5547 255° West 159 183 7,900  Level Chicago Center
01:19AM 41.6919 -86.6111 257° West 156 180 7,900  Level Chicago Center
01:20AM 41.6822 -86.6678 257° West 157 181 7,900  Level Chicago Center
01:21AM 41.6703 -86.7250 254° West 160 184 7,900  Level Chicago Center
01:22AM 41.6592 -86.7836 256° West 155 178 7,900  Level Chicago Center
01:23AM 41.6494 -86.8411 257° West 160 184 7,900  Level Chicago Center
01:24AM 41.6394 -86.8972 257° West 157 181 7,900  Level Chicago Center
01:25AM 41.6272 -86.9531 254° West 158 182 7,900  Level Chicago Center
01:26AM 41.6172 -87.0106 257° West 160 184 7,900  Level Chicago Center
01:27AM 41.6064 -87.0661 255° West 158 182 7,900  Level Chicago Center
01:28AM 41.5967 -87.1233 257° West 159 183 7,900  Level Chicago Center
01:29AM 41.5956 -87.1767 268° West 155 178 7,900  Level Chicago Center
01:30AM 41.6125 -87.2297 293° West 156 180 7,900  Level Chicago Center
01:31AM 41.6325 -87.2917 293° West 153 176 7,900  Level Chicago Center
01:32AM 41.6483 -87.3450 292° West 155 178 7,900 -300 Level Chicago Center
01:33AM 41.6644 -87.3983 292° West 154 177 7,300 -720 Descending Chicago Center
01:34AM 41.6825 -87.4597 292° West 170 196 6,500 -660 Descending Chicago Center
01:35AM 41.7003 -87.5194 292° West 176 203 6,000 -300 Descending Chicago Center
01:36AM 41.7167 -87.5767 291° West 170 196 6,000  Level Chicago Center
01:37AM 41.7308 -87.6339 288° West 165 190 6,000  Level Chicago Center
01:38AM 41.7464 -87.6872 291° West 158 182 6,000  Level Chicago Center
01:39AM 41.7617 -87.7417 291° West 158 182 6,000  Level Chicago Center
01:40AM 41.7778 -87.7961 292° West 158 182 6,000 -120 Level Chicago Center
01:41AM 41.7939 -87.8519 291° West 161 185 5,800 -600 Descending Chicago Center
01:42AM 41.8100 -87.9142 289° West 171 197 4,900 -660 Descending Chicago Center
01:43AM 41.8294 -87.9731 294° West 175 201 4,500 -600 Descending Chicago Center
01:44AM 41.8483 -88.0311 294° West 173 199 3,800 -720 Descending Chicago Center
01:45AM 41.8731 -88.0889 300° West 177 204 3,100 -780 Descending Chicago Center
01:46AM 41.8964 -88.1503 297° West 181 208 2,300 -900 Descending Chicago Center
01:47AM 41.9103 -88.2106 287° West 173 199 1,300 -720 Descending Chicago Center
01:48AM 41.9119 -88.2628 272° West 147 169 900 -420 Descending Chicago Center